Time;durP1;ratioP1;P1;durP2;ratioP2;P2;SDS_P1;SDS_P2;PMS_P1;PMS_P2;Temp;Humidity;BMP_temperature;BMP_pressure;BME280_temperature;BME280_humidity;BME280_pressure;Samples;Min_cycle;Max_cycle;Signal;HPM_P1;HPM_P2
2022/04/29 00:01:35;;;;;;;10.57;6.65;;;11.70;48.00;;;7.61;63.61;96356.19;5015519;28;20029;-54
2022/04/29 00:04:01;;;;;;;9.15;6.40;;;11.70;48.30;;;7.50;64.61;96364.94;5033173;28;20156;-56
2022/04/29 00:06:26;;;;;;;10.65;7.18;;;11.60;48.40;;;7.42;65.22;96359.94;5031811;28;20124;-53
2022/04/29 00:08:55;;;;;;;11.05;7.63;;;11.40;48.50;;;7.30;64.99;96344.03;5027145;28;20026;-52
2022/04/29 00:11:27;;;;;;;11.18;7.18;;;11.40;48.80;;;7.20;64.55;96341.09;5015583;28;20112;-51
2022/04/29 00:13:56;;;;;;;8.75;6.72;;;11.30;48.90;;;7.17;65.39;96350.28;5032824;28;20030;-50
2022/04/29 00:16:26;;;;;;;10.00;6.72;;;11.20;49.00;;;7.03;66.76;96338.25;5033043;28;20405;-56
2022/04/29 00:18:52;;;;;;;9.75;7.10;;;11.10;49.20;;;6.93;67.62;96344.09;5031683;28;20112;-53
2022/04/29 00:21:18;;;;;;;9.80;6.85;;;11.00;49.30;;;6.89;66.69;96347.38;5031536;28;20056;-55
2022/04/29 00:23:56;;;;;;;10.88;7.32;;;10.90;49.60;;;6.75;67.16;96344.09;5032903;28;20033;-55
2022/04/29 00:26:22;;;;;;;10.00;7.60;;;10.80;49.80;;;6.65;67.84;96349.91;5015297;28;20472;-56
2022/04/29 00:28:48;;;;;;;11.50;6.78;;;10.70;49.90;;;6.55;67.89;96340.84;5032767;28;20127;-54
2022/04/29 00:31:17;;;;;;;11.65;7.72;;;10.60;50.00;;;6.45;67.94;96341.34;5031343;28;20041;-55
2022/04/29 00:33:42;;;;;;;9.63;7.00;;;10.50;50.20;;;6.40;67.71;96346.53;5032764;28;20151;-55
2022/04/29 00:36:11;;;;;;;13.93;7.28;;;10.50;50.20;;;6.31;68.74;96338.06;5032729;28;20459;-53
2022/04/29 00:38:37;;;;;;;10.48;8.13;;;10.40;50.50;;;6.22;68.29;96334.06;5033222;28;20065;-56
2022/04/29 00:41:06;;;;;;;11.98;7.95;;;10.30;50.50;;;6.09;69.47;96321.78;5024442;28;20434;-56
2022/04/29 00:43:32;;;;;;;9.98;7.55;;;10.20;50.80;;;6.02;71.00;96319.19;5031616;28;20033;-56
2022/04/29 00:46:00;;;;;;;11.20;7.70;;;10.10;50.90;;;5.98;70.44;96322.47;4998833;28;20131;-54
2022/04/29 00:48:32;;;;;;;10.55;7.75;;;10.10;51.20;;;5.93;70.58;96323.16;5032571;28;20030;-55
2022/04/29 00:51:06;;;;;;;12.23;7.53;;;10.00;51.40;;;5.88;70.95;96322.13;5015418;28;20100;-56
2022/04/29 00:53:42;;;;;;;10.27;7.30;;;9.90;51.60;;;5.79;71.69;96301.25;5031192;28;20025;-53
2022/04/29 00:56:10;;;;;;;10.52;7.55;;;9.90;51.70;;;5.80;71.59;96315.31;5021756;28;20060;-52
2022/04/29 00:58:48;;;;;;;10.75;7.93;;;9.80;51.70;;;5.77;72.71;96316.53;5032145;28;20087;-53
2022/04/29 01:01:20;;;;;;;10.35;7.57;;;9.80;52.00;;;5.72;71.44;96315.56;5031255;28;20026;-51
2022/04/29 01:03:48;;;;;;;15.30;7.72;;;9.70;52.00;;;5.65;71.06;96314.81;5014625;28;20442;-53
2022/04/29 01:06:14;;;;;;;12.32;7.55;;;9.60;51.90;;;5.55;71.28;96318.75;5031086;28;20408;-54
2022/04/29 01:08:40;;;;;;;12.90;7.93;;;9.60;52.00;;;5.39;71.72;96303.41;5032237;28;20032;-54
2022/04/29 01:11:08;;;;;;;10.27;7.40;;;9.50;52.10;;;5.37;72.12;96313.38;5014500;28;20060;-53
2022/04/29 01:13:35;;;;;;;11.57;7.65;;;9.50;52.20;;;5.32;73.85;96315.84;5031021;28;20026;-51
2022/04/29 01:16:01;;;;;;;16.33;8.20;;;9.50;52.40;;;5.37;73.97;96312.56;5031064;28;20113;-55
2022/04/29 01:18:33;;;;;;;12.32;8.05;;;9.40;52.70;;;5.33;73.84;96310.34;5032443;28;20155;-56
2022/04/29 01:21:05;;;;;;;11.60;7.57;;;9.40;53.10;;;5.30;74.13;96310.78;5014758;28;20036;-53
2022/04/29 01:23:34;;;;;;;10.93;7.57;;;9.40;53.10;;;5.27;74.05;96305.13;5032450;28;20694;-55
2022/04/29 01:26:01;;;;;;;11.77;7.93;;;9.30;53.10;;;5.30;73.54;96302.06;5030917;28;20431;-54
2022/04/29 01:28:31;;;;;;;10.65;7.57;;;9.30;53.10;;;5.29;73.62;96297.78;5031028;28;20104;-52
2022/04/29 01:30:59;;;;;;;10.88;7.47;;;9.30;53.30;;;5.29;73.62;96303.84;5030595;28;20041;-56
2022/04/29 01:33:28;;;;;;;12.07;7.75;;;9.20;53.30;;;5.25;73.80;96302.69;5030914;28;20113;-52
2022/04/29 01:35:57;;;;;;;14.95;7.50;;;9.20;53.40;;;5.19;73.11;96300.88;5014189;28;20057;-51
2022/04/29 01:38:29;;;;;;;11.48;7.57;;;9.20;53.40;;;5.13;73.74;96299.09;5030786;28;20100;-53
2022/04/29 01:41:05;;;;;;;11.25;7.30;;;9.20;53.40;;;5.04;74.43;96292.44;5043577;28;20076;-52
2022/04/29 01:43:35;;;;;;;11.40;7.68;;;9.10;53.60;;;4.98;74.50;96293.28;5017706;28;20071;-51
2022/04/29 01:46:02;;;;;;;12.43;7.30;;;9.00;53.60;;;4.96;74.85;96295.34;5047876;22;20488;-48
2022/04/29 01:48:28;;;;;;;11.48;8.20;;;9.00;53.80;;;4.91;75.52;96289.88;5011575;28;20040;-47
2022/04/29 01:50:55;;;;;;;13.82;8.82;;;9.00;53.80;;;4.91;75.42;96287.25;5031081;28;20120;-47
2022/04/29 01:53:21;;;;;;;10.45;8.07;;;8.90;53.90;;;4.85;75.59;96291.53;5033114;28;20139;-46
2022/04/29 01:55:47;;;;;;;12.63;8.10;;;8.90;54.00;;;4.83;75.20;96291.75;5050316;28;20033;-48
2022/04/29 01:58:16;;;;;;;11.13;8.18;;;8.90;54.20;;;4.79;75.01;96289.72;5032813;28;20174;-46
2022/04/29 02:00:41;;;;;;;11.23;8.07;;;8.80;54.30;;;4.76;76.25;96292.78;5050581;28;20036;-47
2022/04/29 02:03:07;;;;;;;11.57;7.88;;;8.80;54.30;;;4.70;76.16;96294.47;5050539;28;20025;-46
2022/04/29 02:05:33;;;;;;;11.00;7.47;;;8.80;54.40;;;4.69;76.16;96295.47;5032758;28;20039;-47
2022/04/29 02:08:07;;;;;;;11.85;7.97;;;8.70;54.60;;;4.74;76.30;96294.84;5033568;28;20060;-51
2022/04/29 02:10:36;;;;;;;13.18;8.90;;;8.70;55.00;;;4.77;75.27;96292.59;5036491;28;20033;-46
2022/04/29 02:13:11;;;;;;;13.80;8.02;;;8.70;55.00;;;4.74;75.50;96279.00;5036359;28;20383;-48
2022/04/29 02:15:36;;;;;;;11.00;7.80;;;8.70;55.40;;;4.73;75.18;96272.94;5035909;28;20068;-49
2022/04/29 02:18:02;;;;;;;11.18;7.75;;;8.70;55.20;;;4.73;74.53;96266.81;5053706;28;20466;-49
2022/04/29 02:20:28;;;;;;;10.25;7.68;;;8.70;55.20;;;4.79;75.17;96266.78;5053795;28;20391;-48
2022/04/29 02:22:54;;;;;;;9.48;7.18;;;8.70;55.20;;;4.83;75.09;96257.44;5053689;28;20106;-47
2022/04/29 02:25:23;;;;;;;12.73;7.63;;;8.70;55.40;;;4.81;75.60;96262.09;5035956;28;20497;-46
2022/04/29 02:27:49;;;;;;;12.05;7.85;;;8.70;55.50;;;4.87;74.40;96263.91;5053507;28;20082;-47
2022/04/29 02:30:17;;;;;;;10.32;7.68;;;8.80;55.60;;;5.24;73.27;96261.44;5053610;28;20029;-46
2022/04/29 02:32:43;;;;;;;9.35;7.05;;;8.90;56.20;;;5.55;71.95;96249.22;5021480;28;20025;-46
2022/04/29 02:35:09;;;;;;;9.38;7.07;;;9.00;56.30;;;5.71;71.56;96255.78;5043373;28;20021;-48
2022/04/29 02:37:41;;;;;;;8.90;7.18;;;9.10;56.40;;;5.68;71.50;96256.22;5031403;28;20087;-49
2022/04/29 02:40:11;;;;;;;11.98;7.63;;;9.20;56.20;;;5.62;72.53;96247.31;5035664;28;20095;-47
2022/04/29 02:42:48;;;;;;;9.60;6.50;;;9.30;56.10;;;5.79;70.43;96248.38;5053348;28;20029;-46
2022/04/29 02:45:14;;;;;;;9.48;6.82;;;9.40;56.50;;;5.89;70.73;96247.91;5035962;28;20369;-50
2022/04/29 02:47:40;;;;;;;12.35;7.82;;;9.50;56.30;;;5.90;70.30;96248.69;4727987;28;8774103;-47
2022/04/29 02:50:07;;;;;;;14.02;7.32;;;9.60;56.20;;;5.91;70.87;96239.72;5034543;28;20534;-46
2022/04/29 02:52:42;;;;;;;9.63;7.47;;;9.60;56.10;;;5.86;71.25;96236.94;5033145;28;20037;-46
2022/04/29 02:55:10;;;;;;;12.13;8.13;;;9.70;56.10;;;5.72;71.90;96238.91;5034150;28;20357;-47
2022/04/29 02:57:36;;;;;;;12.13;7.70;;;9.70;55.90;;;5.68;71.82;96240.38;5020014;28;20099;-49
2022/04/29 03:00:09;;;;;;;11.43;7.40;;;9.70;55.80;;;5.67;72.17;96238.72;5033249;28;20033;-49
2022/04/29 03:02:35;;;;;;;;;;;9.60;55.80;;;5.62;72.40;96241.22;5033614;28;20036;-46
2022/04/29 03:05:13;;;;;;;10.23;7.20;;;9.60;55.50;;;5.54;71.92;96243.09;5032872;28;19909;-46
2022/04/29 03:07:39;;;;;;;10.02;7.10;;;9.60;55.70;;;5.48;72.19;96237.88;5034082;28;20025;-48
2022/04/29 03:10:07;;;;;;;11.38;8.32;;;9.50;55.50;;;5.45;72.57;96235.66;5034041;28;20033;-50
2022/04/29 03:12:33;;;;;;;12.50;7.68;;;9.50;55.60;;;5.39;73.09;96240.00;5034116;28;20469;-48
2022/04/29 03:15:25;;;;;;;13.57;8.35;;;9.50;55.60;;;5.30;73.47;96239.47;5034001;28;20026;-46
2022/04/29 03:20:43;;;;;;;9.93;7.35;;;9.40;55.90;;;5.21;73.31;96238.09;5033441;28;20056;-47
2022/04/29 03:23:12;;;;;;;14.13;8.35;;;9.30;55.70;;;5.14;74.17;96231.22;5032716;28;20539;-48
2022/04/29 03:25:41;;;;;;;12.32;8.25;;;9.30;55.90;;;5.18;74.55;96232.44;5015959;28;20099;-46
2022/04/29 03:28:08;;;;;;;10.50;7.43;;;9.30;56.00;;;5.15;73.48;96233.66;5033731;28;20396;-49
2022/04/29 03:30:41;;;;;;;10.60;8.07;;;9.20;56.00;;;5.16;73.56;96222.06;5016033;28;20029;-48
2022/04/29 03:33:08;;;;;;;9.95;7.53;;;9.20;56.00;;;5.12;74.42;96222.72;5033587;28;20108;-50
2022/04/29 03:35:43;;;;;;;11.10;8.02;;;9.20;56.00;;;5.06;74.16;96216.47;5032426;28;20034;-49
2022/04/29 03:38:12;;;;;;;12.25;8.00;;;9.10;56.20;;;5.05;75.08;96228.88;5032187;28;20033;-48
2022/04/29 03:40:41;;;;;;;12.15;8.20;;;9.10;56.40;;;5.00;74.65;96214.69;5032369;28;20053;-48
2022/04/29 03:43:07;;;;;;;10.60;8.20;;;9.10;56.50;;;4.92;75.13;96223.69;5015776;28;20027;-46
2022/04/29 03:45:34;;;;;;;12.77;8.55;;;9.10;56.50;;;4.86;75.87;96217.41;5032243;28;20041;-46
2022/04/29 03:48:05;;;;;;;13.90;8.55;;;9.00;56.50;;;4.77;75.46;96220.53;5050508;28;20065;-46
2022/04/29 03:50:34;;;;;;;12.45;8.43;;;9.00;56.50;;;4.72;75.49;96223.78;5035520;28;20398;-46
2022/04/29 03:53:04;;;;;;;10.80;7.50;;;8.90;56.60;;;4.74;75.69;96228.84;5035324;28;20033;-47
2022/04/29 03:55:33;;;;;;;10.85;7.95;;;8.90;56.80;;;4.70;75.59;96227.66;5052938;28;20044;-46
2022/04/29 03:58:02;;;;;;;11.70;7.90;;;8.80;56.70;;;4.58;76.35;96219.63;5053072;28;20017;-48
2022/04/29 04:00:40;;;;;;;11.95;8.57;;;8.80;56.90;;;4.55;76.33;96227.94;5035535;28;20029;-49
2022/04/29 04:03:06;;;;;;;11.68;8.48;;;8.70;57.00;;;4.49;77.00;96226.94;5052885;28;20490;-49
2022/04/29 04:05:33;;;;;;;13.70;8.88;;;8.70;56.90;;;4.41;76.88;96230.63;5052918;28;20360;-46
2022/04/29 04:07:59;;;;;;;11.82;8.73;;;8.60;56.90;;;4.33;77.40;96228.25;5052846;28;20040;-46
2022/04/29 04:10:28;;;;;;;12.30;8.43;;;8.60;57.00;;;4.28;77.67;96228.03;5052635;28;20491;-47
2022/04/29 04:12:54;;;;;;;11.30;8.23;;;8.50;57.10;;;4.28;77.22;96235.16;5052870;28;20029;-47
2022/04/29 04:15:23;;;;;;;12.65;8.38;;;8.50;57.30;;;4.27;77.71;96239.63;5052702;28;20098;-46
2022/04/29 04:17:50;;;;;;;14.55;8.77;;;8.50;57.40;;;4.28;77.57;96243.88;5051544;28;20371;-47
2022/04/29 04:20:17;;;;;;;13.50;8.23;;;8.50;57.50;;;4.32;78.03;96236.34;5052727;28;20028;-48
2022/04/29 04:22:43;;;;;;;14.90;8.20;;;8.50;57.60;;;4.33;77.60;96241.44;5054061;28;20040;-51
2022/04/29 04:25:12;;;;;;;10.70;8.30;;;8.50;58.20;;;4.33;78.20;96241.44;5054919;28;20029;-47
2022/04/29 04:27:38;;;;;;;14.98;9.45;;;8.50;57.80;;;4.33;77.75;96243.25;5020986;28;20029;-46
2022/04/29 04:30:10;;;;;;;12.10;8.85;;;8.50;57.70;;;4.31;78.19;96250.56;5037278;28;20121;-51
2022/04/29 04:32:48;;;;;;;10.17;7.43;;;8.50;57.70;;;4.23;78.11;96250.78;5054356;28;20021;-50
2022/04/29 04:35:13;;;;;;;12.70;8.57;;;8.50;57.60;;;4.21;78.19;96255.47;5054890;28;20511;-49
2022/04/29 04:37:43;;;;;;;14.48;8.73;;;8.50;57.40;;;4.16;78.55;96258.72;5053689;28;20110;-46
2022/04/29 04:40:15;;;;;;;15.02;9.48;;;8.50;57.60;;;4.15;78.85;96247.38;5035051;28;20021;-51
2022/04/29 04:42:45;;;;;;;13.90;9.98;;;8.50;57.50;;;4.14;79.38;96251.03;5034600;28;20052;-50
2022/04/29 04:45:14;;;;;;;14.70;9.60;;;8.50;57.60;;;4.17;80.36;96247.16;5052475;28;20480;-52
2022/04/29 04:47:50;;;;;;;15.23;9.25;;;8.50;57.70;;;4.23;79.92;96242.88;5051729;28;20056;-46
2022/04/29 04:50:19;;;;;;;12.63;8.77;;;8.60;57.90;;;4.29;79.19;96245.47;5034672;28;20036;-51
2022/04/29 04:52:51;;;;;;;12.73;8.90;;;8.60;57.80;;;4.36;78.98;96245.47;5052399;28;20028;-48
2022/04/29 04:55:17;;;;;;;16.27;9.25;;;8.70;57.90;;;4.51;79.03;96250.47;5034281;28;20052;-49
2022/04/29 04:57:45;;;;;;;13.43;9.02;;;8.80;57.80;;;4.64;78.96;96250.44;5017936;28;20122;-49
2022/04/29 05:00:11;;;;;;;13.65;8.48;;;8.90;57.90;;;4.80;79.08;96257.84;5034337;28;20365;-51
2022/04/29 05:02:50;;;;;;;12.85;8.70;;;9.00;57.90;;;4.95;78.57;96259.38;5052141;28;20103;-48
2022/04/29 05:05:18;;;;;;;13.25;9.50;;;9.10;57.90;;;5.05;78.79;96252.63;5052149;28;20368;-52
2022/04/29 05:07:44;;;;;;;11.93;8.77;;;9.30;58.00;;;5.25;78.98;96252.47;5051824;28;20032;-49
2022/04/29 05:10:11;;;;;;;12.13;8.52;;;9.40;58.50;;;5.55;77.71;96257.97;5034136;28;20087;-47
2022/04/29 05:12:46;;;;;;;12.18;8.30;;;9.70;57.90;;;5.96;75.70;96267.19;5033429;28;20037;-50
2022/04/29 05:15:16;;;;;;;10.63;7.73;;;10.00;57.90;;;6.34;74.79;96268.00;5041948;28;20087;-48
2022/04/29 05:17:43;;;;;;;11.50;7.38;;;10.20;57.60;;;6.55;73.27;96270.22;5049460;28;20025;-48
2022/04/29 05:20:12;;;;;;;10.73;7.15;;;10.50;57.40;;;6.62;71.89;96267.47;5033467;28;20029;-48
2022/04/29 05:22:39;;;;;;;9.00;7.15;;;10.70;57.10;;;6.69;71.06;96268.19;5046183;28;20444;-50
2022/04/29 05:25:06;;;;;;;10.18;7.65;;;10.80;56.80;;;6.88;70.81;96264.47;5050064;28;20025;-47
2022/04/29 05:27:38;;;;;;;9.93;7.05;;;11.10;56.60;;;7.15;69.20;96280.81;5034097;28;20033;-47
2022/04/29 05:30:05;;;;;;;8.80;6.68;;;11.30;56.30;;;7.44;68.49;96281.00;5051971;28;20079;-52
2022/04/29 05:32:34;;;;;;;8.93;6.57;;;11.60;56.00;;;7.67;67.25;96274.94;5051814;28;20044;-50
2022/04/29 05:35:01;;;;;;;10.18;6.78;;;11.90;55.60;;;7.86;66.90;96278.28;5033987;28;20040;-50
2022/04/29 05:37:30;;;;;;;11.52;6.90;;;12.10;55.30;;;7.89;66.12;96267.22;5050401;28;20033;-47
2022/04/29 05:42:42;;;;;;;10.05;6.65;;;12.40;54.70;;;8.32;64.59;96279.31;5052132;28;20472;-47
2022/04/29 05:45:08;;;;;;;10.00;6.50;;;12.60;54.30;;;8.50;64.19;96286.38;5037739;28;20035;-48
2022/04/29 05:47:34;;;;;;;9.50;6.57;;;12.80;54.00;;;8.60;64.71;96283.91;5055244;28;20049;-48
2022/04/29 05:50:09;;;;;;;11.45;6.97;;;12.90;53.90;;;8.70;64.13;96293.94;5037789;28;20443;-53
2022/04/29 05:52:35;;;;;;;8.60;6.53;;;13.00;53.60;;;8.70;64.38;96293.94;5037422;28;20033;-48
2022/04/29 05:55:08;;;;;;;9.35;6.65;;;13.10;53.50;;;8.67;64.44;96286.44;5037480;28;20082;-48
2022/04/29 05:57:36;;;;;;;9.55;6.85;;;13.20;53.30;;;8.67;64.12;96289.09;5052087;28;20056;-51
2022/04/29 06:00:04;;;;;;;10.48;6.72;;;13.20;53.10;;;8.75;64.51;96292.19;5036743;28;20054;-49
2022/04/29 06:02:30;;;;;;;9.57;6.60;;;13.30;52.90;;;8.90;63.29;96297.00;5036410;28;20025;-51
2022/04/29 06:04:56;;;;;;;8.15;6.25;;;13.40;52.70;;;9.10;62.74;96290.47;5033456;28;20116;-48
2022/04/29 06:07:22;;;;;;;10.27;6.78;;;13.60;52.40;;;9.19;61.48;96289.84;5035887;28;20116;-50
2022/04/29 06:09:47;;;;;;;9.80;6.30;;;13.80;52.00;;;9.41;60.46;96297.94;5037221;28;20025;-47
2022/04/29 06:12:16;;;;;;;9.55;7.13;;;14.00;51.60;;;9.64;60.70;96293.53;5055468;28;20040;-50
2022/04/29 06:14:45;;;;;;;9.43;6.47;;;14.20;51.40;;;9.87;58.83;96296.06;5037118;28;20123;-49
2022/04/29 06:17:12;;;;;;;9.20;7.07;;;14.50;50.90;;;10.17;58.41;96297.56;5037016;28;20067;-46
2022/04/29 06:19:39;;;;;;;10.75;6.65;;;14.70;50.50;;;10.46;56.83;96303.56;5054962;28;20021;-53
2022/04/29 06:22:05;;;;;;;10.10;6.95;;;15.10;50.00;;;10.65;56.01;96299.59;5037187;28;20025;-51
2022/04/29 06:24:39;;;;;;;9.57;6.30;;;15.30;49.40;;;10.92;55.35;96309.50;5031482;28;20070;-55
2022/04/29 06:27:05;;;;;;;11.65;6.35;;;15.70;48.90;;;11.16;53.89;96315.38;5050825;28;20373;-51
2022/04/29 06:29:34;;;;;;;7.13;5.75;;;16.10;48.20;;;11.50;53.27;96309.81;5018782;28;20036;-48
2022/04/29 06:31:59;;;;;;;10.07;5.72;;;16.50;47.50;;;11.93;52.28;96303.56;5053671;28;20033;-51
2022/04/29 06:34:31;;;;;;;7.13;5.85;;;16.90;47.00;;;12.25;51.45;96298.22;5053347;28;20545;-47
2022/04/29 06:36:59;;;;;;;7.57;5.93;;;17.30;46.20;;;12.52;51.12;96299.16;5053644;28;20131;-47
2022/04/29 06:39:27;;;;;;;8.13;5.53;;;17.70;45.40;;;12.69;50.49;96299.75;5053688;28;20142;-47
2022/04/29 06:41:53;;;;;;;6.47;5.35;;;18.00;44.80;;;12.92;50.08;96296.66;5053479;28;20025;-48
2022/04/29 06:44:25;;;;;;;8.93;5.75;;;18.40;44.10;;;13.20;48.11;96299.97;5035503;28;20027;-47
2022/04/29 06:47:02;;;;;;;6.20;5.53;;;18.70;43.10;;;13.34;47.96;96301.09;5051748;28;20045;-50
2022/04/29 06:49:28;;;;;;;7.60;5.95;;;19.10;42.60;;;13.67;47.42;96306.25;5053608;28;20024;-50
2022/04/29 06:51:53;;;;;;;8.15;5.57;;;19.40;42.10;;;13.80;46.46;96313.75;5053520;28;20036;-48
2022/04/29 06:54:19;;;;;;;6.32;5.13;;;19.70;41.30;;;13.80;46.86;96305.72;5034647;28;20037;-47
2022/04/29 06:56:52;;;;;;;7.85;5.78;;;19.80;40.60;;;14.15;46.67;96298.75;5035258;28;20110;-48
2022/04/29 06:59:22;;;;;;;7.30;5.28;;;20.10;40.20;;;14.48;46.93;96302.72;5053392;28;20055;-49
2022/04/29 07:01:48;;;;;;;6.40;4.93;;;20.40;39.90;;;14.77;46.34;96309.09;5036299;28;20043;-49
2022/04/29 07:04:13;;;;;;;6.05;4.93;;;20.60;39.60;;;15.09;45.44;96307.91;5052877;28;20029;-47
2022/04/29 07:06:42;;;;;;;6.13;4.40;;;20.90;39.20;;;15.28;44.98;96305.41;5035435;28;20099;-50
2022/04/29 07:09:11;;;;;;;4.45;4.03;;;21.30;38.70;;;15.49;43.89;96298.84;5035351;28;20658;-49
2022/04/29 07:11:40;;;;;;;5.47;4.97;;;21.50;38.00;;;15.91;43.42;96305.56;5053258;28;20025;-50
2022/04/29 07:14:08;;;;;;;6.00;4.50;;;21.90;37.70;;;15.93;42.83;96300.72;5052764;28;20025;-50
2022/04/29 07:16:34;;;;;;;5.72;5.07;;;22.20;36.70;;;16.28;42.86;96290.72;5064315;28;20033;-48
2022/04/29 07:19:00;;;;;;;6.20;5.00;;;22.50;36.40;;;16.38;42.27;96292.50;5054824;28;20565;-51
2022/04/29 07:21:25;;;;;;;5.55;4.95;;;22.80;35.80;;;16.57;42.16;96284.53;5035282;28;20031;-50
2022/04/29 07:23:51;;;;;;;6.38;4.82;;;23.00;35.10;;;16.78;42.03;96285.13;5052467;28;20029;-48
2022/04/29 07:26:20;;;;;;;5.20;4.70;;;23.30;34.70;;;16.77;41.16;96280.84;5051682;28;20087;-47
2022/04/29 07:28:46;;;;;;;6.32;4.75;;;23.50;33.90;;;16.89;41.50;96289.28;5035080;28;20028;-47
2022/04/29 07:31:11;;;;;;;5.55;4.95;;;23.70;33.60;;;16.98;41.21;96284.09;5052870;28;20040;-50
2022/04/29 07:33:37;;;;;;;5.68;4.82;;;23.90;33.10;;;17.32;41.20;96292.78;5018304;28;20112;-48
2022/04/29 07:41:44;;;;;;;5.65;4.85;;;24.60;31.90;;;17.45;39.65;96280.50;5052699;28;20044;-48
2022/04/29 07:44:11;;;;;;;5.18;4.68;;;24.80;31.40;;;17.80;39.69;96286.50;5036180;28;20035;-49
2022/04/29 07:46:37;;;;;;;6.25;4.55;;;24.90;31.20;;;18.05;38.89;96285.28;5052291;28;20499;-48
2022/04/29 07:49:09;;;;;;;5.07;4.57;;;24.90;31.10;;;18.03;38.14;96274.78;5053698;23;20203;-50
2022/04/29 07:51:42;;;;;;;5.78;4.88;;;25.00;30.60;;;18.10;38.77;96273.59;5052204;28;20024;-53
2022/04/29 07:54:13;;;;;;;5.47;4.82;;;25.00;30.60;;;17.98;38.78;96282.16;5018846;28;20027;-55
2022/04/29 07:56:42;;;;;;;7.50;5.03;;;25.10;30.20;;;17.83;38.33;96264.34;5035004;28;20040;-52
2022/04/29 07:59:11;;;;;;;8.68;4.80;;;25.20;29.90;;;17.62;39.67;96265.72;5031964;28;20025;-56
2022/04/29 08:01:40;;;;;;;6.88;5.10;;;25.20;29.50;;;17.97;38.97;96267.09;5030764;28;20049;-52
2022/04/29 08:04:09;;;;;;;5.82;5.22;;;25.30;29.50;;;17.99;38.26;96263.00;5031779;28;20026;-52
2022/04/29 08:06:35;;;;;;;5.45;4.80;;;25.50;29.10;;;18.37;38.50;96264.78;5032144;28;20029;-52
2022/04/29 08:09:01;;;;;;;7.28;4.85;;;25.70;29.10;;;18.46;38.27;96265.69;5032014;28;20026;-51
2022/04/29 08:11:27;;;;;;;6.60;5.47;;;25.80;29.10;;;18.63;37.63;96265.91;5030255;28;20026;-53
2022/04/29 08:13:53;;;;;;;6.00;5.43;;;26.00;29.00;;;18.80;37.89;96268.03;5032896;28;20028;-51
2022/04/29 08:16:21;;;;;;;7.47;5.10;;;26.10;28.80;;;19.04;37.50;96280.53;5033113;28;20357;-54
2022/04/29 08:18:47;;;;;;;6.07;4.47;;;26.30;28.60;;;19.15;36.69;96273.81;5032850;28;20037;-54
2022/04/29 08:21:13;;;;;;;8.20;5.50;;;26.40;28.40;;;19.40;36.55;96273.25;5032808;28;20038;-54
2022/04/29 08:23:39;;;;;;;7.05;4.85;;;26.50;28.40;;;19.45;35.70;96271.53;5031178;28;20061;-52
2022/04/29 08:26:04;;;;;;;6.18;5.28;;;26.70;28.20;;;19.60;36.37;96268.50;5032728;28;20036;-52
2022/04/29 08:28:30;;;;;;;10.00;5.07;;;27.00;28.00;;;19.58;35.12;96270.69;5014858;28;20464;-52
2022/04/29 08:30:59;;;;;;;5.13;4.65;;;27.10;27.70;;;19.62;34.78;96274.41;5031499;28;20443;-49
2022/04/29 08:33:26;;;;;;;5.97;4.38;;;27.30;27.20;;;19.84;35.13;96265.56;5032693;28;20041;-52
2022/04/29 08:36:03;;;;;;;4.97;4.50;;;27.50;27.20;;;20.09;34.50;96258.72;5032386;28;20032;-52
2022/04/29 08:38:32;;;;;;;4.75;4.35;;;27.60;27.00;;;20.10;34.89;96265.72;5014769;28;20069;-51
2022/04/29 08:41:01;;;;;;;7.63;5.18;;;27.70;26.80;;;20.06;34.06;96262.84;5032747;28;20112;-51
2022/04/29 08:43:39;;;;;;;4.95;4.47;;;27.90;26.50;;;20.34;33.60;96259.97;5031339;28;20025;-55
2022/04/29 08:46:09;;;;;;;5.88;4.40;;;27.90;26.30;;;20.67;33.57;96254.25;5031506;28;20033;-55
2022/04/29 08:48:36;;;;;;;7.70;4.53;;;28.00;26.40;;;20.96;34.21;96254.50;5030810;28;20136;-56
2022/04/29 08:51:05;;;;;;;6.50;4.60;;;28.10;26.50;;;21.00;33.13;96258.19;5032092;28;20438;-53
2022/04/29 08:53:35;;;;;;;7.60;5.20;;;28.10;26.20;;;21.03;33.25;96254.84;5030545;28;20427;-55
2022/04/29 08:58:56;;;;;;;6.82;5.60;;;28.20;26.10;;;20.47;35.08;96247.47;5032160;28;20407;-52
2022/04/29 09:01:22;;;;;;;7.20;5.50;;;28.20;26.00;;;20.66;35.88;96250.75;5031045;28;20021;-55
2022/04/29 09:03:48;;;;;;;7.28;5.85;;;28.20;26.30;;;20.39;35.72;96243.59;5014467;28;20079;-52
2022/04/29 09:06:17;;;;;;;7.68;5.43;;;28.20;26.40;;;20.53;35.25;96244.34;5014563;28;20040;-54
2022/04/29 09:08:46;;;;;;;6.15;5.38;;;28.20;26.40;;;20.55;35.45;96241.28;5014352;28;20048;-54
2022/04/29 09:11:27;;;;;;;6.65;5.72;;;28.10;26.40;;;20.36;35.00;96244.22;5029839;28;20025;-50
2022/04/29 09:13:54;;;;;;;6.07;5.30;;;27.90;26.30;;;20.54;36.54;96245.91;5032164;28;20068;-53
2022/04/29 09:16:20;;;;;;;7.40;6.47;;;27.80;26.80;;;20.24;35.18;96242.06;5011336;28;20052;-54
2022/04/29 09:18:51;;;;;;;6.50;5.43;;;27.60;26.80;;;20.11;36.36;96254.56;5016638;28;20065;-54
2022/04/29 09:21:23;;;;;;;6.32;5.57;;;27.50;26.90;;;20.10;36.43;96244.88;5035779;28;20115;-55
2022/04/29 09:24:03;;;;;;;7.10;5.75;;;27.40;26.90;;;19.92;36.66;96236.97;5031153;28;20049;-54
2022/04/29 09:26:38;;;;;;;6.28;5.32;;;27.30;26.90;;;20.01;36.86;96238.63;5035683;28;20032;-55
2022/04/29 09:29:14;;;;;;;8.27;5.43;;;27.30;27.00;;;20.25;37.10;96234.78;5018208;28;20400;-52
2022/04/29 09:31:54;;;;;;;5.65;5.15;;;27.40;27.10;;;20.53;36.12;96238.91;5018206;28;20029;-49
2022/04/29 09:34:24;;;;;;;6.38;5.72;;;27.50;27.10;;;20.73;36.33;96237.56;5035741;28;20108;-53
2022/04/29 09:36:50;;;;;;;6.35;5.43;;;27.70;27.20;;;20.94;35.71;96237.00;5032354;28;20458;-56
2022/04/29 09:39:30;;;;;;;6.13;5.53;;;27.80;27.10;;;20.44;35.83;96239.97;5017581;28;20032;-55
2022/04/29 09:42:06;;;;;;;9.15;6.10;;;28.00;26.80;;;20.78;35.81;96229.28;5020250;28;20365;-51
2022/04/29 09:44:35;;;;;;;7.22;6.28;;;28.30;26.80;;;21.00;35.39;96246.56;5033252;28;20352;-55
2022/04/29 09:47:14;;;;;;;6.07;5.45;;;28.70;26.60;;;21.59;34.95;96238.03;5033579;28;20506;-55
2022/04/29 09:49:53;;;;;;;7.95;5.40;;;29.10;26.50;;;21.72;34.44;96237.09;5015255;28;20508;-55
2022/04/29 09:52:20;;;;;;;7.93;6.80;;;29.50;26.30;;;21.41;33.63;96235.34;5019327;28;20124;-55
2022/04/29 09:55:19;;;;;;;6.25;5.63;;;29.90;25.70;;;21.88;34.09;96235.47;4998210;28;20419;-54
2022/04/29 09:57:56;;;;;;;6.25;5.65;;;30.10;25.60;;;22.48;33.07;96236.47;5017363;28;20025;-53
2022/04/29 10:00:23;;;;;;;6.75;6.10;;;30.50;25.40;;;22.90;32.59;96230.38;5034339;28;20037;-55
2022/04/29 10:02:49;;;;;;;6.82;6.20;;;31.00;25.30;;;23.03;33.85;96232.91;5017873;28;20025;-51
2022/04/29 10:05:15;;;;;;;7.40;6.07;;;31.40;25.20;;;23.03;32.00;96223.94;5017656;28;20171;-51
2022/04/29 10:07:42;;;;;;;10.85;5.85;;;31.80;24.70;;;23.26;31.75;96227.94;5034070;28;20049;-55
2022/04/29 10:10:15;;;;;;;6.40;5.78;;;32.00;24.40;;;23.48;30.71;96231.47;5033721;28;20095;-53
2022/04/29 10:12:47;;;;;;;7.00;6.30;;;32.20;24.00;;;23.43;31.19;96224.28;5034081;28;20064;-50
2022/04/29 10:15:16;;;;;;;7.80;6.07;;;32.40;23.80;;;23.52;32.09;96227.75;5017462;28;20128;-53
2022/04/29 10:23:32;;;;;;;7.63;5.57;;;32.40;23.40;;;23.91;31.25;96222.16;5034323;28;20074;-54
2022/04/29 10:26:02;;;;;;;;;;;32.40;23.50;;;24.11;30.58;96207.72;5034363;28;20025;-54
2022/04/29 10:28:31;;;;;;;5.97;5.47;;;32.50;24.00;;;23.95;30.13;96212.22;5034852;28;19913;-55
2022/04/29 10:31:06;;;;;;;6.72;5.18;;;32.60;23.50;;;24.08;30.56;96207.59;5032350;28;20090;-55
2022/04/29 10:33:33;;;;;;;7.15;5.68;;;32.50;23.20;;;23.85;31.58;96196.28;5033769;28;20568;-56
2022/04/29 10:36:15;;;;;;;6.10;5.50;;;32.40;23.20;;;23.93;30.98;96198.94;5034667;28;20056;-51
2022/04/29 10:38:46;;;;;;;6.20;5.57;;;32.30;23.30;;;24.11;30.22;96193.31;5016716;28;20500;-55
2022/04/29 10:41:23;;;;;;;6.43;5.70;;;32.20;23.30;;;23.76;30.18;96193.69;5016723;28;20472;-51
2022/04/29 10:43:52;;;;;;;6.35;5.75;;;32.20;22.80;;;23.05;31.99;96189.88;5017008;28;20053;-51
2022/04/29 10:46:38;;;;;;;5.97;5.35;;;32.10;22.80;;;23.50;31.49;96188.41;5034639;28;20546;-50
2022/04/29 10:49:25;;;;;;;6.00;5.50;;;31.70;23.20;;;23.72;30.83;96188.13;5033171;28;20116;-54
2022/04/29 10:51:56;;;;;;;5.95;5.22;;;31.50;23.20;;;23.62;30.57;96188.47;5034505;28;20060;-55